Record high temperature 42.2°C Record low temperature -14.6°C Record high gust 68.5 km/h Record high average 47.2 km/h Record daily rain 55.3 mm Record low windchill -17.5°C Record high barometer 1046.0 hPa Record low barometer 969.0 hPa
Daily high pressure 1009.0 hPa Daily low pressure 1000.0 hPa Daily low windchill -1.2°C Daily high heat index 8.8°C Daily high gust speed 28.1 kmh WNW Daily high average speed 19.4 kmh W

This page is updated from recent data collected by a WMR200 weather station Use the Reload or Refresh facility on your browser to retrieve the latest data.

Status report of weather station: Bienvenue sur la Station Météo de Godarville



Weather report/warning/Metars

Alexandroupoli Airport , Greece (LGAL) 40-51N 025-55E 3M
Jan 29, 2020 - 06:50 AM EST / 2020.01.29 1150 UTC
Wind: from the W (260 degrees) at 13 MPH (11 KT):0
Visibility: greater than 7 mile(s):0
Sky conditions: mostly clear
Temperature: 59 F (15 C)
Dew Point: 55 F (13 C)
Relative Humidity: 87%
Pressure (altimeter): 29.83 in. Hg (1010 hPa)
ob: LGAL 291150Z 26011KT 9999 FEW025 15/13 Q1010
cycle: 12

Charleroi / Gosselies, Belgium (EBCI) 50-28N 004-27E 192M
Jan 29, 2020 - 08:20 AM EST / 2020.01.29 1320 UTC
Wind: from the W (270 degrees) at 14 MPH (12 KT) (direction variable):0
Visibility: greater than 7 mile(s):0
Sky conditions: partly cloudy
Temperature: 44 F (7 C)
Dew Point: 32 F (0 C)
Relative Humidity: 60%
Pressure (altimeter): 29.85 in. Hg (1011 hPa)
ob: EBCI 291320Z 27012KT 230V310 9999 SCT028 07/00 Q1011 NOSIG
cycle: 13

Bruxelles National, Belgium (EBBR) 50-54N 004-32E 58M
Jan 29, 2020 - 08:20 AM EST / 2020.01.29 1320 UTC
Wind: from the W (270 degrees) at 17 MPH (15 KT) gusting to 29 MPH (25 KT):0
Visibility: greater than 7 mile(s):0
Sky conditions: mostly cloudy
Temperature: 42 F (6 C)
Dew Point: 32 F (0 C)
Relative Humidity: 65%
Pressure (altimeter): 29.83 in. Hg (1010 hPa)
ob: EBBR 291320Z 27015G25KT 9999 BKN034 06/00 Q1010 NOSIG
cycle: 13

Koksijde, Belgium (EBFN) 51-05N 002-39E 9M
Jan 29, 2020 - 08:25 AM EST / 2020.01.29 1325 UTC
Wind: from the W (270 degrees) at 21 MPH (18 KT):0
Visibility: greater than 7 mile(s):0
Sky conditions: mostly clear
Temperature: 46 F (8 C)
Dew Point: 35 F (2 C)
Relative Humidity: 65%
Pressure (altimeter): 29.85 in. Hg (1011 hPa)
ob: EBFN 291325Z 27018KT 9999 FEW030 08/02 Q1011 BLU BLU
cycle: 13

Poznan, Poland (EPPO) 52-25N 016-50E 92M
Jan 29, 2020 - 08:30 AM EST / 2020.01.29 1330 UTC
Wind: from the WSW (250 degrees) at 12 MPH (10 KT):0
Visibility: greater than 7 mile(s):0
Sky conditions: mostly cloudy
Temperature: 39 F (4 C)
Dew Point: 33 F (1 C)
Relative Humidity: 80%
Pressure (altimeter): 29.50 in. Hg (0999 hPa)
ob: EPPO 291330Z 25010KT 9999 BKN026 04/01 Q0999 
cycle: 13



Coucher du Soleil:
17:27:38

Lever de Lune:
10:23:31 28/01/20

Coucher de Lune:
21:08:52 28/01/20

Premier Quartier 2 février 2020
Pleine Lune 9 février 2020
Dernier Quartier 15 février 2020
Nouvelle Lune 23 février 2020
Âge de lune : 3 jours,17 heures,0 minutes,15%
Les heures du jour possible étaient aujourd’hui 09:03



The data is logged at two minute intervals, but there is data recorded every minute.

Use the RELOAD facility on your browser to retrieve the latest data.

Click here for a daily update of the averages/extremes to date for the month
Created by "Weather Display" software version 10.37P at this start time/date 12:40:29 22/01/2020